createdAt,value
2022-11-24T00:01:31.730Z,65.16
2022-11-24T00:04:01.776Z,64.82
2022-11-24T00:06:30.822Z,65.39
2022-11-24T00:08:59.367Z,65.54
2022-11-24T00:11:33.054Z,65.28
2022-11-24T00:14:01.649Z,65.34
2022-11-24T00:16:33.232Z,65.69
2022-11-24T00:19:03.609Z,65.21
2022-11-24T00:21:32.622Z,65.80
2022-11-24T00:24:00.624Z,66.32
2022-11-24T00:26:31.173Z,66.05
2022-11-24T00:29:30.910Z,66.32
2022-11-24T00:31:58.577Z,65.78
2022-11-24T00:34:26.120Z,65.93
2022-11-24T00:36:53.655Z,65.87
2022-11-24T00:39:21.150Z,65.94
2022-11-24T00:41:48.869Z,66.10
2022-11-24T00:44:16.508Z,66.02
2022-11-24T00:46:44.248Z,66.13
2022-11-24T00:49:12.137Z,65.77
2022-11-24T00:51:40.045Z,65.81
2022-11-24T00:54:07.468Z,65.93
2022-11-24T00:56:35.227Z,66.18
2022-11-24T00:59:02.764Z,66.33
2022-11-24T01:01:31.550Z,65.76
2022-11-24T01:04:03.753Z,65.84
2022-11-24T01:06:32.887Z,66.04
2022-11-24T01:09:00.461Z,66.07
2022-11-24T01:11:50.729Z,65.78
2022-11-24T01:14:19.102Z,65.81
2022-11-24T01:16:46.702Z,65.71
2022-11-24T01:19:14.348Z,65.63
2022-11-24T01:21:41.829Z,65.73
2022-11-24T01:24:11.068Z,65.71
2022-11-24T01:26:39.451Z,65.69
2022-11-24T01:29:06.850Z,66.01
2022-11-24T01:31:34.352Z,65.90
2022-11-24T01:34:01.997Z,65.76
2022-11-24T01:36:29.712Z,65.89
2022-11-24T01:38:57.284Z,65.72
2022-11-24T01:41:26.562Z,65.74
2022-11-24T01:44:00.585Z,64.94
2022-11-24T01:46:34.315Z,65.06
2022-11-24T01:49:13.886Z,64.96
2022-11-24T01:52:04.627Z,64.80
2022-11-24T01:54:36.799Z,65.06
2022-11-24T01:57:16.959Z,65.15
2022-11-24T01:59:48.302Z,65.12
2022-11-24T02:02:20.974Z,65.04
2022-11-24T02:04:49.578Z,64.41
2022-11-24T02:07:17.165Z,64.32
2022-11-24T02:09:52.244Z,64.71
2022-11-24T02:12:19.504Z,64.53
2022-11-24T02:15:26.178Z,64.73
2022-11-24T02:17:59.735Z,65.16
2022-11-24T02:20:27.416Z,65.30
2022-11-24T02:23:04.156Z,64.87
2022-11-24T02:25:36.330Z,65.53
2022-11-24T02:28:09.036Z,65.48
2022-11-24T02:30:36.701Z,65.55
2022-11-24T02:35:45.741Z,65.60
2022-11-24T02:38:14.181Z,65.38
2022-11-24T02:40:43.669Z,65.26
2022-11-24T02:43:15.150Z,65.87
2022-11-24T02:45:42.762Z,65.59
2022-11-24T02:48:19.254Z,65.96
2022-11-24T02:50:47.045Z,65.44
2022-11-24T02:53:14.467Z,66.30
2022-11-24T02:55:42.031Z,66.53
2022-11-24T02:58:09.602Z,66.04
2022-11-24T03:00:37.344Z,66.13
2022-11-24T03:03:04.846Z,66.23
2022-11-24T03:05:32.497Z,66.46
2022-11-24T03:07:59.908Z,66.19
2022-11-24T03:10:28.759Z,66.66
2022-11-24T03:12:56.818Z,66.46
2022-11-24T03:15:24.894Z,66.43
2022-11-24T03:18:42.906Z,66.17
2022-11-24T03:21:00.295Z,66.19
2022-11-24T03:23:27.749Z,66.34
2022-11-24T03:25:55.306Z,66.48
2022-11-24T03:28:22.852Z,66.32
2022-11-24T03:30:50.726Z,65.89
2022-11-24T03:33:18.214Z,66.15
2022-11-24T03:35:45.815Z,66.05
2022-11-24T03:38:13.266Z,66.16
2022-11-24T03:40:40.809Z,66.04
2022-11-24T03:43:08.350Z,66.39
2022-11-24T03:45:46.161Z,66.99
2022-11-24T03:48:16.098Z,66.69
2022-11-24T03:50:44.164Z,66.43
2022-11-24T03:53:11.771Z,66.43
2022-11-24T03:55:39.387Z,66.41
2022-11-24T03:58:07.022Z,66.25
2022-11-24T04:00:34.525Z,66.40
2022-11-24T04:03:02.212Z,65.92
2022-11-24T04:05:29.687Z,66.37
2022-11-24T04:07:57.876Z,65.93
2022-11-24T04:10:25.719Z,66.17
2022-11-24T04:12:53.211Z,66.25
2022-11-24T04:15:21.526Z,65.43
2022-11-24T04:17:49.870Z,65.76
2022-11-24T04:20:17.987Z,66.11
2022-11-24T04:22:45.954Z,65.96
2022-11-24T04:25:14.872Z,65.94
2022-11-24T04:27:42.673Z,65.84
2022-11-24T04:30:10.730Z,66.11
2022-11-24T04:32:38.270Z,65.70
2022-11-24T04:35:06.701Z,65.94
2022-11-24T04:37:34.702Z,65.64
2022-11-24T04:40:02.618Z,65.75
2022-11-24T04:42:30.289Z,66.31
2022-11-24T04:44:57.822Z,66.25
2022-11-24T04:47:27.158Z,65.95
2022-11-24T04:49:55.325Z,65.66
2022-11-24T04:55:12.088Z,65.79
2022-11-24T04:57:39.822Z,65.89
2022-11-24T05:00:08.397Z,65.87
2022-11-24T05:02:35.971Z,65.58
2022-11-24T05:05:03.762Z,65.98
2022-11-24T05:07:31.325Z,66.07
2022-11-24T05:10:25.549Z,65.88
2022-11-24T05:12:57.571Z,65.55
2022-11-24T05:15:25.657Z,65.96
2022-11-24T05:17:53.328Z,65.56
2022-11-24T05:20:21.874Z,65.76
2022-11-24T05:22:50.341Z,65.64
2022-11-24T05:25:26.516Z,66.04
2022-11-24T05:27:54.585Z,66.10
2022-11-24T05:30:22.694Z,65.85
2022-11-24T05:32:50.451Z,65.49
2022-11-24T05:35:19.801Z,66.28
2022-11-24T05:37:48.589Z,65.49
2022-11-24T05:40:16.863Z,65.86
2022-11-24T05:42:47.725Z,66.10
2022-11-24T05:45:19.354Z,66.74
2022-11-24T05:47:48.155Z,66.65
2022-11-24T05:50:17.500Z,66.29
2022-11-24T05:52:45.772Z,66.83
2022-11-24T05:55:15.268Z,66.52
2022-11-24T05:57:43.310Z,66.08
2022-11-24T06:00:12.174Z,66.71
2022-11-24T06:02:43.334Z,66.66
2022-11-24T06:05:11.546Z,66.02
2022-11-24T06:07:52.122Z,66.59
2022-11-24T06:10:21.851Z,66.21
2022-11-24T06:12:49.995Z,66.52
2022-11-24T06:15:18.638Z,66.69
2022-11-24T06:17:55.342Z,67.10
2022-11-24T06:20:28.490Z,66.79
2022-11-24T06:23:01.003Z,67.11
2022-11-24T06:25:30.915Z,67.17
2022-11-24T06:27:58.779Z,67.69
2022-11-24T06:30:26.382Z,67.34
2022-11-24T06:32:56.891Z,66.87
2022-11-24T06:35:25.070Z,67.30
2022-11-24T06:37:54.988Z,67.30
2022-11-24T06:40:23.152Z,67.06
2022-11-24T06:42:52.736Z,66.93
2022-11-24T06:45:20.693Z,66.83
2022-11-24T06:47:48.897Z,66.38
2022-11-24T06:50:16.854Z,66.97
2022-11-24T06:52:45.116Z,67.21
2022-11-24T06:55:13.158Z,66.80
2022-11-24T06:57:40.958Z,66.25
2022-11-24T07:00:09.381Z,66.49
2022-11-24T07:02:41.075Z,66.24
2022-11-24T07:05:13.440Z,65.90
2022-11-24T07:07:41.396Z,66.16
2022-11-24T07:10:09.410Z,65.54
2022-11-24T07:12:37.228Z,65.34
2022-11-24T07:15:05.616Z,65.25
2022-11-24T07:17:36.409Z,65.46
2022-11-24T07:20:05.307Z,65.59
2022-11-24T07:22:33.195Z,65.29
2022-11-24T07:25:01.294Z,65.29
2022-11-24T07:27:30.933Z,65.07
2022-11-24T07:30:00.230Z,64.99
2022-11-24T07:32:27.924Z,65.62
2022-11-24T07:34:55.735Z,65.18
2022-11-24T07:37:29.664Z,65.46
2022-11-24T07:40:19.288Z,65.25
2022-11-24T07:42:47.309Z,65.38
2022-11-24T07:45:15.076Z,65.49
2022-11-24T07:47:43.302Z,65.28
2022-11-24T07:50:11.672Z,65.21
2022-11-24T07:52:43.392Z,65.03
2022-11-24T07:55:15.573Z,65.51
2022-11-24T08:03:18.084Z,65.06
2022-11-24T08:08:49.138Z,64.95
2022-11-24T08:11:18.644Z,64.92
2022-11-24T08:13:46.894Z,64.50
2022-11-24T08:16:16.411Z,64.66
2022-11-24T08:18:49.333Z,64.69
2022-11-24T08:21:17.801Z,64.65
2022-11-24T08:23:45.731Z,64.16
2022-11-24T08:28:59.835Z,63.84
2022-11-24T08:31:33.834Z,63.86
2022-11-24T08:34:06.925Z,63.93
2022-11-24T08:36:35.515Z,64.13
2022-11-24T08:39:06.421Z,64.60
2022-11-24T08:41:34.505Z,64.65
2022-11-24T08:44:02.820Z,64.96
2022-11-24T08:46:30.810Z,64.39
2022-11-24T08:48:58.919Z,64.64
2022-11-24T08:51:27.655Z,64.29
2022-11-24T08:53:59.551Z,64.57
2022-11-24T08:56:32.473Z,63.96
2022-11-24T08:59:01.145Z,63.89
2022-11-24T09:04:11.349Z,64.72
2022-11-24T09:06:39.412Z,64.83
2022-11-24T09:09:07.253Z,64.67
2022-11-24T09:11:35.038Z,64.64
2022-11-24T09:14:04.132Z,64.78
2022-11-24T09:16:32.495Z,64.01
2022-11-24T09:19:06.382Z,64.72
2022-11-24T09:21:38.587Z,65.40
2022-11-24T09:24:08.149Z,65.25
2022-11-24T09:26:39.050Z,64.84
2022-11-24T09:29:11.416Z,64.41
2022-11-24T09:31:40.055Z,64.75
2022-11-24T09:34:09.629Z,64.90
2022-11-24T09:36:37.623Z,65.20
2022-11-24T09:39:05.718Z,65.87
2022-11-24T09:41:55.758Z,66.29
2022-11-24T09:44:38.901Z,66.44
2022-11-24T09:47:17.566Z,65.89
2022-11-24T09:49:55.186Z,65.06
2022-11-24T09:53:03.891Z,65.30
2022-11-24T09:55:40.259Z,65.36
2022-11-24T10:01:35.053Z,64.66
2022-11-24T10:04:06.330Z,64.83
2022-11-24T10:07:10.923Z,64.00
2022-11-24T10:09:47.835Z,63.92
2022-11-24T10:12:38.088Z,64.09
2022-11-24T10:15:11.879Z,64.26
2022-11-24T10:17:57.105Z,63.57
2022-11-24T10:21:01.567Z,63.44
2022-11-24T10:23:56.936Z,63.36
2022-11-24T10:26:30.838Z,63.97
2022-11-24T10:28:58.810Z,63.53
2022-11-24T10:31:30.996Z,62.86
2022-11-24T10:34:04.385Z,64.08
2022-11-24T10:37:02.178Z,63.34
2022-11-24T10:39:35.582Z,64.14
2022-11-24T10:42:26.832Z,63.60
2022-11-24T10:45:05.645Z,63.02
2022-11-24T10:47:34.853Z,64.25
2022-11-24T10:50:14.278Z,64.68
2022-11-24T10:53:08.802Z,64.28
2022-11-24T10:55:55.392Z,64.78
2022-11-24T10:58:26.716Z,64.14
2022-11-24T11:01:00.493Z,64.02
2022-11-24T11:03:34.156Z,64.26
2022-11-24T11:06:12.435Z,63.88
2022-11-24T11:08:40.852Z,63.89
2022-11-24T11:11:19.701Z,63.69
2022-11-24T11:14:04.263Z,63.74
2022-11-24T11:16:40.047Z,63.34
2022-11-24T11:19:47.915Z,63.29
2022-11-24T11:22:31.274Z,63.56
2022-11-24T11:25:11.411Z,63.90
2022-11-24T11:27:41.289Z,63.33
2022-11-24T11:36:12.402Z,63.41
2022-11-24T11:38:42.404Z,63.50
2022-11-24T11:41:19.619Z,63.50
2022-11-24T11:43:50.913Z,63.12
2022-11-24T11:46:18.715Z,63.64
2022-11-24T11:48:48.311Z,63.35
2022-11-24T11:51:37.201Z,63.40
2022-11-24T11:54:40.883Z,64.17
2022-11-24T11:57:26.865Z,64.84
2022-11-24T12:00:29.947Z,64.78
2022-11-24T12:03:05.983Z,64.22
2022-11-24T12:06:09.172Z,63.66
2022-11-24T12:11:57.955Z,64.02
2022-11-24T12:14:39.187Z,63.72
2022-11-24T12:17:19.108Z,64.19
2022-11-24T12:20:22.036Z,63.71
2022-11-24T12:23:19.013Z,63.35
2022-11-24T12:26:02.197Z,63.29
2022-11-24T12:28:35.787Z,63.25
2022-11-24T12:31:07.934Z,63.36
2022-11-24T12:34:17.421Z,63.56
2022-11-24T12:37:02.100Z,63.38
2022-11-24T12:39:55.905Z,63.48
2022-11-24T12:42:27.257Z,63.91
2022-11-24T12:45:10.149Z,63.82
2022-11-24T12:47:51.020Z,63.60
2022-11-24T12:50:21.764Z,64.02
2022-11-24T12:52:58.829Z,63.39
2022-11-24T12:55:29.721Z,64.09
2022-11-24T12:58:16.381Z,63.89
2022-11-24T13:01:16.746Z,64.13
2022-11-24T13:04:39.514Z,63.92
2022-11-24T13:07:11.970Z,64.08
2022-11-24T13:10:18.782Z,64.02
2022-11-24T13:13:07.937Z,64.08
2022-11-24T13:16:20.575Z,64.36
2022-11-24T13:18:57.261Z,64.67
2022-11-24T13:21:50.583Z,64.35
2022-11-24T13:24:19.800Z,63.65
2022-11-24T13:27:16.664Z,63.65
2022-11-24T13:29:46.386Z,63.92
2022-11-24T13:32:15.371Z,64.89
2022-11-24T13:37:34.923Z,64.46
2022-11-24T13:40:24.749Z,64.86
2022-11-24T13:42:55.278Z,66.25
2022-11-24T13:45:49.527Z,66.22
2022-11-24T13:48:20.488Z,67.16
2022-11-24T13:50:52.755Z,67.60
2022-11-24T13:53:46.138Z,67.56
2022-11-24T13:56:13.622Z,66.97
2022-11-24T13:58:44.249Z,65.94
2022-11-24T14:01:28.865Z,66.45
2022-11-24T14:07:15.672Z,65.39
2022-11-24T14:09:50.540Z,64.89
2022-11-24T14:12:25.940Z,65.12
2022-11-24T14:14:57.576Z,65.54
2022-11-24T14:17:28.692Z,65.17
2022-11-24T14:19:58.415Z,65.52
2022-11-24T14:22:41.649Z,66.41
2022-11-24T14:25:38.873Z,66.65
2022-11-24T14:28:23.848Z,66.45
2022-11-24T14:31:06.248Z,66.63
2022-11-24T14:33:33.978Z,66.78
2022-11-24T14:36:01.464Z,66.53
2022-11-24T14:38:29.174Z,65.66
2022-11-24T14:40:56.900Z,65.43
2022-11-24T14:43:31.939Z,65.44
2022-11-24T14:46:10.178Z,66.77
2022-11-24T14:48:40.458Z,66.20
2022-11-24T14:51:32.411Z,66.51
2022-11-24T14:54:15.266Z,66.84
2022-11-24T14:56:57.788Z,66.04
2022-11-24T14:59:28.085Z,65.57
2022-11-24T15:01:57.110Z,65.95
2022-11-24T15:07:27.421Z,65.78
2022-11-24T15:10:01.097Z,65.80
2022-11-24T15:12:38.192Z,67.09
2022-11-24T15:15:14.920Z,65.87
2022-11-24T15:18:02.842Z,65.30
2022-11-24T15:20:44.825Z,66.15
2022-11-24T15:23:23.223Z,66.16
2022-11-24T15:25:55.233Z,65.33
2022-11-24T15:28:26.306Z,65.69
2022-11-24T15:30:55.571Z,67.41
2022-11-24T15:33:24.045Z,67.35
2022-11-24T15:35:52.198Z,66.77
2022-11-24T15:38:20.268Z,66.58
2022-11-24T15:40:49.996Z,66.60
2022-11-24T15:43:37.628Z,67.03
2022-11-24T15:46:05.711Z,67.20
2022-11-24T15:48:33.582Z,67.08
2022-11-24T15:51:03.352Z,66.89
2022-11-24T15:53:44.930Z,67.01
2022-11-24T15:56:31.303Z,66.83
2022-11-24T15:58:59.003Z,66.61
2022-11-24T16:01:31.484Z,66.85
2022-11-24T16:03:59.173Z,66.32
2022-11-24T16:06:26.548Z,66.40
2022-11-24T16:08:54.771Z,66.36
2022-11-24T16:11:23.275Z,66.98
2022-11-24T16:13:53.685Z,67.49
2022-11-24T16:16:23.583Z,67.91
2022-11-24T16:18:51.449Z,68.16
2022-11-24T16:21:18.896Z,67.60
2022-11-24T16:23:46.877Z,67.34
2022-11-24T16:26:14.421Z,67.26
2022-11-24T16:28:42.391Z,66.93
2022-11-24T16:31:10.041Z,68.33
2022-11-24T16:33:40.947Z,67.63
2022-11-24T16:36:08.797Z,67.92
2022-11-24T16:41:22.082Z,68.02
2022-11-24T16:43:49.531Z,68.40
2022-11-24T16:46:21.343Z,68.16
2022-11-24T16:48:52.363Z,68.60
2022-11-24T16:51:22.103Z,68.39
2022-11-24T16:53:57.894Z,68.73
2022-11-24T16:56:26.917Z,68.49
2022-11-24T16:58:54.566Z,69.17
2022-11-24T17:01:22.757Z,69.15
2022-11-24T17:03:50.551Z,69.30
2022-11-24T17:06:19.364Z,69.30
2022-11-24T17:08:47.785Z,69.72
2022-11-24T17:11:16.521Z,69.86
2022-11-24T17:13:46.050Z,70.32
2022-11-24T17:16:16.316Z,70.45
2022-11-24T17:18:44.253Z,70.56
2022-11-24T17:21:17.379Z,70.47
2022-11-24T17:23:45.255Z,70.72
2022-11-24T17:26:15.288Z,70.58
2022-11-24T17:28:43.219Z,70.46
2022-11-24T17:31:32.382Z,70.35
2022-11-24T17:34:01.190Z,69.80
2022-11-24T17:36:30.642Z,70.12
2022-11-24T17:39:00.421Z,70.42
2022-11-24T17:41:28.269Z,70.36
2022-11-24T17:43:56.973Z,70.25
2022-11-24T17:46:25.075Z,70.00
2022-11-24T17:48:53.402Z,70.45
2022-11-24T17:51:23.426Z,70.13
2022-11-24T17:53:52.749Z,72.04
2022-11-24T17:56:25.648Z,72.09
2022-11-24T17:59:09.172Z,71.21
2022-11-24T18:01:36.746Z,70.62
2022-11-24T18:04:19.605Z,70.07
2022-11-24T18:06:47.339Z,70.52
2022-11-24T18:09:14.685Z,71.11
2022-11-24T18:11:42.185Z,70.87
2022-11-24T18:14:10.368Z,71.09
2022-11-24T18:16:37.984Z,71.29
2022-11-24T18:19:10.896Z,70.85
2022-11-24T18:21:43.985Z,70.93
2022-11-24T18:24:12.649Z,70.13
2022-11-24T18:26:41.108Z,70.76
2022-11-24T18:29:09.580Z,70.80
2022-11-24T18:31:37.834Z,71.75
2022-11-24T18:34:06.476Z,72.10
2022-11-24T18:36:35.222Z,72.81
2022-11-24T18:39:07.853Z,73.16
2022-11-24T18:41:35.977Z,71.85
2022-11-24T18:44:08.345Z,72.17
2022-11-24T18:46:37.320Z,71.57
2022-11-24T18:49:05.431Z,71.46
2022-11-24T18:54:29.716Z,71.14
2022-11-24T18:57:02.968Z,71.06
2022-11-24T18:59:31.254Z,71.12
2022-11-24T19:01:58.706Z,71.01
2022-11-24T19:04:26.585Z,71.20
2022-11-24T19:06:53.886Z,71.23
2022-11-24T19:09:23.038Z,71.27
2022-11-24T19:11:50.687Z,71.10
2022-11-24T19:14:19.362Z,70.55
2022-11-24T19:16:50.362Z,71.94
2022-11-24T19:19:18.518Z,73.53
2022-11-24T19:21:46.115Z,73.73
2022-11-24T19:24:13.785Z,74.79
2022-11-24T19:26:41.502Z,74.70
2022-11-24T19:29:09.654Z,74.91
2022-11-24T19:31:40.680Z,74.73
2022-11-24T19:34:08.445Z,74.38
2022-11-24T19:36:36.294Z,74.48
2022-11-24T19:39:05.372Z,73.99
2022-11-24T19:41:34.243Z,74.02
2022-11-24T19:44:01.931Z,73.84
2022-11-24T19:46:30.410Z,73.26
2022-11-24T19:49:02.590Z,72.82
2022-11-24T19:51:57.441Z,72.52
2022-11-24T19:54:25.033Z,73.14
2022-11-24T19:56:53.435Z,73.48
2022-11-24T19:59:23.762Z,72.78
2022-11-24T20:01:51.290Z,71.90
2022-11-24T20:04:20.677Z,72.20
2022-11-24T20:06:48.380Z,72.20
2022-11-24T20:09:18.085Z,73.03
2022-11-24T20:11:47.090Z,74.33
2022-11-24T20:14:16.178Z,73.74
2022-11-24T20:19:33.149Z,72.53
2022-11-24T20:22:00.988Z,73.96
2022-11-24T20:24:28.463Z,74.97
2022-11-24T20:26:58.533Z,75.05
2022-11-24T20:29:28.676Z,75.12
2022-11-24T20:31:56.832Z,75.35
2022-11-24T20:34:24.839Z,74.16
2022-11-24T20:36:53.342Z,74.03
2022-11-24T20:39:25.616Z,75.30
2022-11-24T20:41:54.530Z,74.75
2022-11-24T20:47:06.534Z,76.69
2022-11-24T20:49:34.058Z,75.21
2022-11-24T20:52:02.149Z,76.15
2022-11-24T20:54:29.753Z,75.90
2022-11-24T20:56:57.369Z,75.96
2022-11-24T20:59:25.347Z,75.93
2022-11-24T21:04:39.608Z,75.98
2022-11-24T21:07:07.032Z,75.89
2022-11-24T21:09:34.567Z,76.36
2022-11-24T21:12:02.130Z,75.26
2022-11-24T21:14:33.972Z,74.46
2022-11-24T21:19:47.576Z,75.33
2022-11-24T21:22:14.931Z,74.60
2022-11-24T21:24:42.474Z,74.32
2022-11-24T21:27:09.987Z,74.32
2022-11-24T21:29:37.553Z,74.76
2022-11-24T21:32:05.179Z,74.91
2022-11-24T21:34:32.918Z,74.80
2022-11-24T21:37:00.547Z,74.07
2022-11-24T21:39:28.063Z,74.50
2022-11-24T21:41:55.547Z,74.83
2022-11-24T21:44:41.486Z,75.62
2022-11-24T21:47:09.041Z,76.46
2022-11-24T21:49:36.444Z,75.50
2022-11-24T21:52:04.095Z,75.33
2022-11-24T21:54:31.606Z,76.25
2022-11-24T21:56:59.017Z,76.30
2022-11-24T21:59:26.561Z,76.23
2022-11-24T22:01:54.433Z,75.93
2022-11-24T22:04:21.973Z,75.30
2022-11-24T22:06:49.435Z,75.60
2022-11-24T22:09:18.383Z,76.64
2022-11-24T22:11:46.765Z,75.92
2022-11-24T22:14:14.190Z,76.09
2022-11-24T22:16:41.809Z,75.90
2022-11-24T22:19:09.189Z,76.32
2022-11-24T22:21:37.102Z,75.10
2022-11-24T22:24:04.871Z,75.83
2022-11-24T22:26:32.420Z,75.03
2022-11-24T22:28:59.867Z,74.32
2022-11-24T22:31:29.623Z,75.09
2022-11-24T22:33:59.211Z,74.97
2022-11-24T22:36:36.603Z,73.98
2022-11-24T22:39:06.039Z,73.16
2022-11-24T22:41:36.163Z,73.23
2022-11-24T22:44:04.553Z,72.82
2022-11-24T22:46:32.507Z,72.86
2022-11-24T22:49:01.906Z,74.55
2022-11-24T22:51:34.258Z,74.89
2022-11-24T22:54:03.961Z,76.26
2022-11-24T22:56:32.667Z,76.45
2022-11-24T22:59:01.619Z,75.07
2022-11-24T23:01:30.251Z,75.44
2022-11-24T23:03:58.073Z,76.13
2022-11-24T23:06:27.546Z,76.71
2022-11-24T23:08:55.906Z,77.48
2022-11-24T23:11:31.543Z,76.89
2022-11-24T23:14:02.946Z,77.53
2022-11-24T23:16:30.843Z,76.84
2022-11-24T23:18:58.679Z,76.56
2022-11-24T23:21:34.444Z,77.11
2022-11-24T23:24:03.764Z,77.76
2022-11-24T23:26:34.572Z,77.48
2022-11-24T23:29:02.856Z,76.66
2022-11-24T23:31:30.552Z,77.62
2022-11-24T23:34:00.551Z,77.20
2022-11-24T23:36:28.944Z,77.28
2022-11-24T23:38:57.061Z,78.01
2022-11-24T23:41:26.068Z,78.24
2022-11-24T23:43:53.702Z,78.42
2022-11-24T23:46:23.304Z,77.99
2022-11-24T23:48:52.551Z,77.56
2022-11-24T23:51:22.414Z,77.27
2022-11-24T23:53:50.967Z,77.67
2022-11-24T23:56:21.513Z,77.80
2022-11-24T23:58:49.389Z,77.10
